createdAt,value
2016-06-14T00:00:58.885Z,98.86
2016-06-14T00:01:58.872Z,98.86
2016-06-14T00:02:58.843Z,99.15
2016-06-14T00:03:58.832Z,99.05
2016-06-14T00:04:58.818Z,99.15
2016-06-14T00:05:58.791Z,98.76
2016-06-14T00:06:58.778Z,99.05
2016-06-14T00:07:58.750Z,99.19
2016-06-14T00:08:58.737Z,99.19
2016-06-14T00:09:58.709Z,98.86
2016-06-14T00:10:58.696Z,99
2016-06-14T00:11:58.669Z,99.19
2016-06-14T00:12:58.655Z,98.86
2016-06-14T00:13:58.627Z,98.81
2016-06-14T00:14:58.616Z,99.38
2016-06-14T00:15:58.586Z,99.29
2016-06-14T00:16:58.575Z,99.38
2016-06-14T00:17:58.546Z,99.38
2016-06-14T00:18:58.534Z,99.19
2016-06-14T00:19:58.506Z,99.38
2016-06-14T00:20:58.493Z,98.86
2016-06-14T00:21:58.465Z,99.58
2016-06-14T00:22:58.452Z,99.29
2016-06-14T00:23:58.439Z,99.29
2016-06-14T00:24:58.411Z,99.19
2016-06-14T00:25:58.399Z,99.19
2016-06-14T00:26:58.370Z,98.71
2016-06-14T00:27:58.358Z,99.38
2016-06-14T00:28:58.330Z,98.71
2016-06-14T00:29:58.707Z,99
2016-06-14T00:30:58.351Z,99
2016-06-14T00:31:58.277Z,99
2016-06-14T00:32:58.249Z,98.81
2016-06-14T00:33:58.235Z,99.38
2016-06-14T00:34:58.223Z,99.38
2016-06-14T00:35:58.195Z,98.71
2016-06-14T00:36:58.183Z,98.81
2016-06-14T00:37:58.154Z,99.38
2016-06-14T00:38:58.142Z,99.29
2016-06-14T00:39:58.114Z,99.29
2016-06-14T00:40:58.101Z,99.29
2016-06-14T00:41:58.073Z,99.48
2016-06-14T00:42:58.061Z,98.81
2016-06-14T00:43:58.033Z,99
2016-06-14T00:44:58.019Z,99.1
2016-06-14T00:45:57.992Z,98.91
2016-06-14T00:46:57.978Z,99.1
2016-06-14T00:47:57.951Z,98.81
2016-06-14T00:48:57.938Z,98.81
2016-06-14T00:49:57.910Z,99.38
2016-06-14T00:50:57.897Z,98.81
2016-06-14T00:51:57.885Z,99.29
2016-06-14T00:52:57.857Z,99.38
2016-06-14T00:53:57.845Z,99.38
2016-06-14T00:54:57.816Z,99.48
2016-06-14T00:55:57.804Z,99.48
2016-06-14T00:56:57.776Z,99.38
2016-06-14T00:57:57.762Z,99.19
2016-06-14T00:58:57.735Z,99.1
2016-06-14T00:59:57.722Z,99.19
2016-06-14T01:00:57.710Z,99.29
2016-06-14T01:01:57.678Z,99.1
2016-06-14T01:02:57.650Z,99.19
2016-06-14T01:03:57.638Z,99.19
2016-06-14T01:04:57.609Z,99
2016-06-14T01:05:57.598Z,99
2016-06-14T01:06:57.568Z,99.1
2016-06-14T01:07:57.557Z,99.19
2016-06-14T01:08:57.528Z,99
2016-06-14T01:09:57.515Z,99.19
2016-06-14T01:10:57.503Z,99.1
2016-06-14T01:11:57.475Z,99.29
2016-06-14T01:12:57.461Z,99.29
2016-06-14T01:13:57.434Z,99.29
2016-06-14T01:14:57.422Z,99.19
2016-06-14T01:15:57.393Z,99.19
2016-06-14T01:16:57.380Z,98.91
2016-06-14T01:17:57.368Z,99.48
2016-06-14T01:18:57.341Z,99.38
2016-06-14T01:19:57.327Z,99
2016-06-14T01:20:57.299Z,99
2016-06-14T01:21:57.271Z,99
2016-06-14T01:22:57.259Z,99
2016-06-14T01:23:57.230Z,99
2016-06-14T01:24:57.217Z,99.19
2016-06-14T01:25:57.206Z,99
2016-06-14T01:26:57.177Z,99.29
2016-06-14T01:27:57.165Z,99.19
2016-06-14T01:28:57.136Z,99.1
2016-06-14T01:29:57.124Z,99.19
2016-06-14T01:30:57.096Z,99.29
2016-06-14T01:31:57.083Z,99.38
2016-06-14T01:32:57.055Z,99.19
2016-06-14T01:33:57.042Z,99.19
2016-06-14T01:34:57.014Z,99.48
2016-06-14T01:35:57.001Z,99
2016-06-14T01:36:56.974Z,99.38
2016-06-14T01:37:56.960Z,99.38
2016-06-14T01:38:56.995Z,99
2016-06-14T01:39:56.920Z,99.19
2016-06-14T01:40:56.908Z,99.38
2016-06-14T01:41:56.879Z,99.19
2016-06-14T01:42:56.867Z,99.19
2016-06-14T01:43:56.839Z,99.19
2016-06-14T01:44:56.826Z,99
2016-06-14T01:45:56.798Z,99.38
2016-06-14T01:46:56.785Z,99
2016-06-14T01:47:56.758Z,99.1
2016-06-14T01:48:56.744Z,99
2016-06-14T01:49:56.716Z,99.19
2016-06-14T01:50:56.703Z,99.19
2016-06-14T01:51:56.676Z,99.1
2016-06-14T01:52:56.663Z,99
2016-06-14T01:53:56.635Z,99.38
2016-06-14T01:54:56.622Z,99.29
2016-06-14T01:55:56.594Z,99.38
2016-06-14T01:56:56.582Z,99.29
2016-06-14T01:57:56.569Z,99.38
2016-06-14T01:58:56.541Z,99.38
2016-06-14T01:59:57.013Z,99.1
2016-06-14T02:00:56.500Z,99.19
2016-06-14T02:01:56.487Z,99.29
2016-06-14T02:02:56.459Z,99
2016-06-14T02:03:56.447Z,99.19
2016-06-14T02:04:56.419Z,99.1
2016-06-14T02:05:56.406Z,99.19
2016-06-14T02:06:56.378Z,99.1
2016-06-14T02:07:56.366Z,99.29
2016-06-14T02:08:56.338Z,99.1
2016-06-14T02:09:56.325Z,99
2016-06-14T02:10:56.297Z,99.19
2016-06-14T02:11:56.284Z,99
2016-06-14T02:12:56.256Z,99.38
2016-06-14T02:13:56.243Z,99.48
2016-06-14T02:14:56.232Z,99.58
2016-06-14T02:15:56.202Z,99.38
2016-06-14T02:16:56.190Z,99.38
2016-06-14T02:17:56.161Z,99.48
2016-06-14T02:18:56.150Z,98.81
2016-06-14T02:19:56.121Z,98.91
2016-06-14T02:20:56.108Z,99.19
2016-06-14T02:21:56.081Z,99.58
2016-06-14T02:22:56.067Z,99.38
2016-06-14T02:23:56.040Z,99.29
2016-06-14T02:24:56.027Z,99.1
2016-06-14T02:25:55.999Z,99.48
2016-06-14T02:26:55.986Z,98.71
2016-06-14T02:27:55.974Z,98.91
2016-06-14T02:28:55.945Z,98.71
2016-06-14T02:29:55.933Z,98.71
2016-06-14T02:30:55.905Z,98.62
2016-06-14T02:31:55.892Z,98.71
2016-06-14T02:32:55.864Z,98.71
2016-06-14T02:33:55.851Z,98.91
2016-06-14T02:34:55.824Z,98.76
2016-06-14T02:35:55.811Z,98.76
2016-06-14T02:36:55.782Z,98.76
2016-06-14T02:37:55.770Z,98.66
2016-06-14T02:38:55.742Z,98.71
2016-06-14T02:39:55.729Z,99.05
2016-06-14T02:40:55.701Z,99.15
2016-06-14T02:41:55.689Z,98.95
2016-06-14T02:42:55.661Z,98.76
2016-06-14T02:43:55.648Z,99.24
2016-06-14T02:44:55.636Z,99.38
2016-06-14T02:45:55.608Z,99.43
2016-06-14T02:46:55.579Z,99.24
2016-06-14T02:47:55.567Z,99.33
2016-06-14T02:48:55.539Z,99.43
2016-06-14T02:49:55.526Z,99.15
2016-06-14T02:50:55.498Z,98.76
2016-06-14T02:51:55.485Z,98.76
2016-06-14T02:52:55.457Z,99.05
2016-06-14T02:53:55.444Z,99.15
2016-06-14T02:54:55.416Z,99.05
2016-06-14T02:55:55.403Z,99.43
2016-06-14T02:56:55.454Z,99.33
2016-06-14T02:57:55.363Z,99.43
2016-06-14T02:58:55.334Z,98.95
2016-06-14T02:59:55.385Z,99.15
2016-06-14T03:00:55.997Z,99.15
2016-06-14T03:01:55.282Z,99.05
2016-06-14T03:02:55.254Z,99.05
2016-06-14T03:03:55.241Z,99.05
2016-06-14T03:04:55.291Z,98.66
2016-06-14T03:05:55.200Z,98.95
2016-06-14T03:06:55.172Z,99.24
2016-06-14T03:07:55.160Z,99.43
2016-06-14T03:08:55.131Z,99.24
2016-06-14T03:09:55.118Z,99.52
2016-06-14T03:10:55.090Z,99.05
2016-06-14T03:11:55.077Z,99.43
2016-06-14T03:12:55.050Z,99.43
2016-06-14T03:13:55.038Z,99.05
2016-06-14T03:14:55.008Z,99.33
2016-06-14T03:15:54.996Z,99.43
2016-06-14T03:16:54.968Z,99.15
2016-06-14T03:17:54.956Z,99.05
2016-06-14T03:18:54.928Z,99.24
2016-06-14T03:19:54.915Z,99.33
2016-06-14T03:20:54.887Z,99.24
2016-06-14T03:21:54.874Z,99.33
2016-06-14T03:22:54.846Z,99.52
2016-06-14T03:23:54.833Z,99.52
2016-06-14T03:24:54.806Z,99.24
2016-06-14T03:25:54.792Z,99.33
2016-06-14T03:26:54.764Z,99.33
2016-06-14T03:27:54.752Z,99.15
2016-06-14T03:28:54.724Z,99.99
2016-06-14T03:29:55.070Z,99.81
2016-06-14T03:30:54.683Z,99.15
2016-06-14T03:31:54.670Z,99.33
2016-06-14T03:32:54.642Z,99.24
2016-06-14T03:33:54.630Z,99.43
2016-06-14T03:34:54.602Z,99.33
2016-06-14T03:35:54.589Z,99.29
2016-06-14T03:36:54.561Z,99.15
2016-06-14T03:37:54.548Z,99.29
2016-06-14T03:38:54.521Z,98.9
2016-06-14T03:39:54.508Z,98.9
2016-06-14T03:40:54.480Z,99.19
2016-06-14T03:41:54.466Z,99.48
2016-06-14T03:42:54.438Z,99.57
2016-06-14T03:43:54.426Z,99.1
2016-06-14T03:44:54.586Z,99.67
2016-06-14T03:45:54.995Z,99.96
2016-06-14T03:46:54.357Z,99.67
2016-06-14T03:47:54.345Z,99.29
2016-06-14T03:48:54.316Z,99.96
2016-06-14T03:49:54.304Z,99.48
2016-06-14T03:50:54.276Z,99.38
2016-06-14T03:51:54.263Z,99.86
2016-06-14T03:52:54.235Z,99.99
2016-06-14T03:53:54.222Z,99.96
2016-06-14T03:54:54.195Z,99.67
2016-06-14T03:55:54.182Z,99.99
2016-06-14T03:56:54.153Z,99.96
2016-06-14T03:57:54.141Z,99.99
2016-06-14T03:58:54.113Z,99.96
2016-06-14T03:59:54.100Z,99.99
2016-06-14T04:00:54.072Z,99.99
2016-06-14T04:01:54.060Z,99.76
2016-06-14T04:02:54.031Z,99.76
2016-06-14T04:03:54.019Z,99.57
2016-06-14T04:04:53.991Z,99.57
2016-06-14T04:05:53.978Z,99.57
2016-06-14T04:06:53.950Z,99.76
2016-06-14T04:07:53.921Z,99.86
2016-06-14T04:08:53.910Z,99.76
2016-06-14T04:09:53.897Z,99.57
2016-06-14T04:10:53.868Z,99.99
2016-06-14T04:11:53.841Z,99.67
2016-06-14T04:12:53.828Z,99.91
2016-06-14T04:13:53.815Z,99.76
2016-06-14T04:14:53.787Z,99.99
2016-06-14T04:15:54.181Z,99.33
2016-06-14T04:16:53.746Z,99.99
2016-06-14T04:17:53.734Z,99.99
2016-06-14T04:18:53.705Z,99.33
2016-06-14T04:19:53.694Z,99.99
2016-06-14T04:20:53.665Z,99.99
2016-06-14T04:21:53.652Z,99.81
2016-06-14T04:22:53.625Z,99.99
2016-06-14T04:23:53.611Z,99.99
2016-06-14T04:24:53.584Z,99.99
2016-06-14T04:25:53.571Z,99.99
2016-06-14T04:26:53.543Z,99.15
2016-06-14T04:27:53.530Z,99.33
2016-06-14T04:28:53.503Z,99.99
2016-06-14T04:29:53.489Z,99.72
2016-06-14T04:30:53.461Z,99.99
2016-06-14T04:31:53.449Z,99.91
2016-06-14T04:32:53.421Z,99.52
2016-06-14T04:33:53.408Z,99.62
2016-06-14T04:34:53.380Z,99.81
2016-06-14T04:35:53.368Z,99.99
2016-06-14T04:36:53.338Z,99.52
2016-06-14T04:37:53.326Z,99.43
2016-06-14T04:38:53.299Z,99.33
2016-06-14T04:39:53.286Z,99.33
2016-06-14T04:40:53.258Z,99.99
2016-06-14T04:41:53.245Z,99.43
2016-06-14T04:42:53.217Z,99.33
2016-06-14T04:43:53.204Z,99.62
2016-06-14T04:44:53.176Z,99.91
2016-06-14T04:45:53.320Z,99.99
2016-06-14T04:46:53.135Z,99.99
2016-06-14T04:47:53.123Z,99.52
2016-06-14T04:48:53.095Z,99.43
2016-06-14T04:49:53.082Z,99.91
2016-06-14T04:50:53.054Z,99.43
2016-06-14T04:51:53.042Z,99.43
2016-06-14T04:52:53.029Z,99.72
2016-06-14T04:53:53.001Z,99.43
2016-06-14T04:54:52.973Z,99.99
2016-06-14T04:55:52.960Z,99.81
2016-06-14T04:56:52.947Z,99.33
2016-06-14T04:57:52.920Z,99.33
2016-06-14T04:58:53.078Z,99.33
2016-06-14T04:59:52.941Z,99.91
2016-06-14T05:00:53.272Z,99.99
2016-06-14T05:01:52.854Z,99.81
2016-06-14T05:02:52.826Z,99.81
2016-06-14T05:03:52.797Z,99.72
2016-06-14T05:04:52.785Z,99.99
2016-06-14T05:05:52.757Z,99.62
2016-06-14T05:06:52.744Z,99.81
2016-06-14T05:07:52.716Z,99.99
2016-06-14T05:08:52.703Z,99.62
2016-06-14T05:09:52.737Z,99.72
2016-06-14T05:10:52.662Z,99.91
2016-06-14T05:11:52.635Z,99.99
2016-06-14T05:12:52.622Z,99.91
2016-06-14T05:13:52.594Z,99.81
2016-06-14T05:14:52.581Z,99.99
2016-06-14T05:15:52.803Z,99.99
2016-06-14T05:16:52.541Z,99.81
2016-06-14T05:17:52.512Z,99.99
2016-06-14T05:18:52.500Z,99.81
2016-06-14T05:19:52.487Z,99.91
2016-06-14T05:20:52.459Z,99.99
2016-06-14T05:21:52.446Z,99.99
2016-06-14T05:22:52.418Z,99.99
2016-06-14T05:23:52.405Z,99.91
2016-06-14T05:24:52.409Z,99.43
2016-06-14T05:25:52.365Z,99.91
2016-06-14T05:26:52.337Z,99.43
2016-06-14T05:27:52.324Z,99.43
2016-06-14T05:28:52.343Z,99.48
2016-06-14T05:29:52.315Z,99.62
2016-06-14T05:30:52.271Z,99.52
2016-06-14T05:31:52.257Z,99.33
2016-06-14T05:32:52.261Z,99.33
2016-06-14T05:33:52.577Z,99.15
2016-06-14T05:34:52.564Z,99.99
2016-06-14T05:35:52.442Z,99.99
2016-06-14T05:36:52.196Z,99.24
2016-06-14T05:37:52.167Z,99.1
2016-06-14T05:38:52.109Z,99.33
2016-06-14T05:39:52.079Z,98.95
2016-06-14T05:40:52.067Z,99.15
2016-06-14T05:41:52.039Z,98.95
2016-06-14T05:42:52.027Z,99.15
2016-06-14T05:43:51.999Z,99.15
2016-06-14T05:44:52.017Z,99.15
2016-06-14T05:45:51.973Z,99.33
2016-06-14T05:46:51.945Z,98.95
2016-06-14T05:47:51.917Z,99.43
2016-06-14T05:48:51.904Z,99.33
2016-06-14T05:49:51.893Z,99.43
2016-06-14T05:50:51.879Z,98.86
2016-06-14T05:51:51.852Z,99.15
2016-06-14T05:52:51.823Z,99.33
2016-06-14T05:53:51.811Z,99.15
2016-06-14T05:54:51.782Z,99.43
2016-06-14T05:55:51.770Z,99.43
2016-06-14T05:56:51.742Z,99.81
2016-06-14T05:57:51.729Z,99.58
2016-06-14T05:58:51.701Z,99.52
2016-06-14T05:59:51.688Z,99.33
2016-06-14T06:00:51.660Z,99.33
2016-06-14T06:01:51.647Z,99.38
2016-06-14T06:02:51.635Z,99.05
2016-06-14T06:03:51.607Z,99.52
2016-06-14T06:04:51.595Z,99.38
2016-06-14T06:05:51.566Z,99.58
2016-06-14T06:06:51.554Z,99.33
2016-06-14T06:07:51.526Z,99.19
2016-06-14T06:08:51.513Z,99.24
2016-06-14T06:09:51.500Z,98.81
2016-06-14T06:10:51.472Z,98.71
2016-06-14T06:11:51.460Z,98.62
2016-06-14T06:12:51.431Z,98.66
2016-06-14T06:13:51.419Z,98.57
2016-06-14T06:14:51.390Z,98.57
2016-06-14T06:15:52.034Z,98.71
2016-06-14T06:16:51.351Z,99.15
2016-06-14T06:17:51.337Z,98.86
2016-06-14T06:18:51.310Z,98.95
2016-06-14T06:19:51.296Z,98.95
2016-06-14T06:20:51.268Z,98.86
2016-06-14T06:21:51.256Z,99.33
2016-06-14T06:22:51.353Z,99.33
2016-06-14T06:23:51.278Z,99.43
2016-06-14T06:24:51.203Z,99.05
2016-06-14T06:25:51.190Z,99.24
2016-06-14T06:26:51.177Z,98.86
2016-06-14T06:27:51.196Z,99.52
2016-06-14T06:28:51.169Z,99.43
2016-06-14T06:29:51.093Z,99.24
2016-06-14T06:30:51.284Z,99.15
2016-06-14T06:31:51.084Z,99.33
2016-06-14T06:32:51.134Z,99.15
2016-06-14T06:33:51.012Z,99.33
2016-06-14T06:34:50.999Z,99.24
2016-06-14T06:35:50.971Z,99.72
2016-06-14T06:36:50.958Z,99.43
2016-06-14T06:37:50.961Z,99.43
2016-06-14T06:38:50.918Z,99.24
2016-06-14T06:39:50.905Z,99.15
2016-06-14T06:40:50.877Z,99.81
2016-06-14T06:41:50.848Z,99.91
2016-06-14T06:42:50.931Z,99.43
2016-06-14T06:43:50.839Z,99.15
2016-06-14T06:44:50.795Z,99.81
2016-06-14T06:45:50.808Z,99.91
2016-06-14T06:46:50.820Z,99.52
2016-06-14T06:47:50.846Z,99.72
2016-06-14T06:48:50.857Z,99.43
2016-06-14T06:49:50.916Z,99.62
2016-06-14T06:50:50.879Z,99.62
2016-06-14T06:51:50.880Z,99.99
2016-06-14T06:52:50.913Z,99.72
2016-06-14T06:53:50.868Z,99.43
2016-06-14T06:54:50.854Z,99.43
2016-06-14T06:55:50.850Z,99.52
2016-06-14T06:56:50.858Z,99.33
2016-06-14T06:57:50.818Z,98.95
2016-06-14T06:58:50.811Z,99.33
2016-06-14T06:59:50.788Z,99.62
2016-06-14T07:00:50.779Z,99.81
2016-06-14T07:01:50.752Z,99.99
2016-06-14T07:02:50.789Z,99.43
2016-06-14T07:03:50.714Z,99.15
2016-06-14T07:04:50.970Z,99.15
2016-06-14T07:05:50.677Z,99.81
2016-06-14T07:06:50.681Z,99.99
2016-06-14T07:07:50.638Z,99.99
2016-06-14T07:08:50.626Z,99.81
2016-06-14T07:09:50.597Z,99.91
2016-06-14T07:10:50.585Z,99.99
2016-06-14T07:11:50.574Z,99.81
2016-06-14T07:12:50.545Z,99.72
2016-06-14T07:13:50.533Z,99.87
2016-06-14T07:14:50.521Z,99.43
2016-06-14T07:15:50.493Z,99.87
2016-06-14T07:16:50.465Z,99.99
2016-06-14T07:17:50.452Z,99.87
2016-06-14T07:18:50.424Z,99.67
2016-06-14T07:19:50.443Z,99.99
2016-06-14T07:20:50.398Z,99.96
2016-06-14T07:21:50.449Z,99.99
2016-06-14T07:22:50.452Z,99.99
2016-06-14T07:23:50.518Z,99.77
2016-06-14T07:24:50.333Z,99.48
2016-06-14T07:25:50.289Z,99.87
2016-06-14T07:26:50.277Z,99.99
2016-06-14T07:27:50.358Z,99.99
2016-06-14T07:28:50.408Z,99.87
2016-06-14T07:29:50.286Z,99.99
2016-06-14T07:30:50.336Z,99.99
2016-06-14T07:31:50.182Z,99.99
2016-06-14T07:32:50.186Z,99.99
2016-06-14T07:33:50.143Z,99.99
2016-06-14T07:34:50.176Z,99.99
2016-06-14T07:35:50.227Z,99.99
2016-06-14T07:36:50.089Z,99.99
2016-06-14T07:37:50.075Z,99.99
2016-06-14T07:38:50.063Z,99.99
2016-06-14T07:39:50.036Z,99.99
2016-06-14T07:40:50.242Z,99.99
2016-06-14T07:41:50.245Z,99.91
2016-06-14T07:42:50.013Z,99.91
2016-06-14T07:43:49.985Z,99.91
2016-06-14T07:44:49.957Z,99.82
2016-06-14T07:45:50.414Z,99.77
2016-06-14T07:46:49.932Z,99.39
2016-06-14T07:47:49.903Z,99.2
2016-06-14T07:48:49.907Z,98.43
2016-06-14T07:49:49.926Z,98.14
2016-06-14T07:50:49.944Z,98.43
2016-06-14T07:51:49.854Z,98.14
2016-06-14T07:52:49.826Z,97.56
2016-06-14T07:53:49.813Z,97.28
2016-06-14T07:54:50.019Z,97.19
2016-06-14T07:55:50.038Z,97.19
2016-06-14T07:56:50.009Z,98.1
2016-06-14T07:57:49.967Z,97.42
2016-06-14T07:58:49.984Z,97.24
2016-06-14T07:59:49.862Z,96.47
2016-06-14T08:00:49.710Z,96.66
2016-06-14T08:01:49.774Z,96.56
2016-06-14T08:02:49.778Z,97.04
2016-06-14T08:03:49.656Z,96.51
2016-06-14T08:04:49.706Z,96.66
2016-06-14T08:05:49.631Z,96.47
2016-06-14T08:06:49.618Z,97.04
2016-06-14T08:07:49.606Z,96.85
2016-06-14T08:08:49.578Z,96.51
2016-06-14T08:09:49.612Z,97.04
2016-06-14T08:10:49.552Z,96.32
2016-06-14T08:11:49.541Z,96.22
2016-06-14T08:12:49.590Z,96.22
2016-06-14T08:13:49.499Z,96.42
2016-06-14T08:14:49.518Z,96.13
2016-06-14T08:15:49.475Z,96.22
2016-06-14T08:16:49.445Z,96.13
2016-06-14T08:17:49.495Z,96.22
2016-06-14T08:18:49.609Z,96.99
2016-06-14T08:19:49.409Z,96.51
2016-06-14T08:20:49.380Z,96.7
2016-06-14T08:21:49.618Z,96.51
2016-06-14T08:22:49.355Z,96.37
2016-06-14T08:23:49.327Z,96.18
2016-06-14T08:24:49.315Z,96.37
2016-06-14T08:25:49.302Z,96.75
2016-06-14T08:26:49.539Z,96.85
2016-06-14T08:27:49.292Z,96.85
2016-06-14T08:28:49.249Z,97.04
2016-06-14T08:29:49.236Z,96.85
2016-06-14T08:30:49.801Z,97.61
2016-06-14T08:31:49.586Z,97.52
2016-06-14T08:32:49.183Z,97.52
2016-06-14T08:33:49.169Z,97.33
2016-06-14T08:34:49.142Z,97.52
2016-06-14T08:35:49.129Z,97.52
2016-06-14T08:36:49.179Z,97.81
2016-06-14T08:37:49.151Z,97.56
2016-06-14T08:38:49.310Z,97.61
2016-06-14T08:39:49.063Z,97.76
2016-06-14T08:40:49.098Z,97.61
2016-06-14T08:41:49.023Z,98
2016-06-14T08:42:49.058Z,97.81
2016-06-14T08:43:49.028Z,97.66
2016-06-14T08:44:49.017Z,97.71
2016-06-14T08:45:49.175Z,98.28
2016-06-14T08:46:48.976Z,97.85
2016-06-14T08:47:48.932Z,97.47
2016-06-14T08:48:48.904Z,97.85
2016-06-14T08:49:48.938Z,98.24
2016-06-14T08:50:48.880Z,97.47
2016-06-14T08:51:48.850Z,98.43
2016-06-14T08:52:48.838Z,98.33
2016-06-14T08:53:48.872Z,98.33
2016-06-14T08:54:48.813Z,98.52
2016-06-14T08:55:48.862Z,98.14
2016-06-14T08:56:48.757Z,98.52
2016-06-14T08:57:48.744Z,98.91
2016-06-14T08:58:48.731Z,98.91
2016-06-14T08:59:48.703Z,98.81
2016-06-14T09:00:49.269Z,99.1
2016-06-14T09:01:48.881Z,99.48
2016-06-14T09:02:48.869Z,99.29
2016-06-14T09:03:48.778Z,99.44
2016-06-14T09:04:48.625Z,99.24
2016-06-14T09:05:48.596Z,99.34
2016-06-14T09:06:48.599Z,99.53
2016-06-14T09:07:48.916Z,99.34
2016-06-14T09:08:48.622Z,98.96
2016-06-14T09:09:48.530Z,99.24
2016-06-14T09:10:48.518Z,99.15
2016-06-14T09:11:48.630Z,99.34
2016-06-14T09:12:48.478Z,99.15
2016-06-14T09:13:48.606Z,99.34
2016-06-14T09:14:48.453Z,99.24
2016-06-14T09:15:48.440Z,99.1
2016-06-14T09:16:48.412Z,99.39
2016-06-14T09:17:48.399Z,99.49
2016-06-14T09:18:48.683Z,99.2
2016-06-14T09:19:48.358Z,99.58
2016-06-14T09:20:48.347Z,99.54
2016-06-14T09:21:48.333Z,99.25
2016-06-14T09:22:48.321Z,99.44
2016-06-14T09:23:48.309Z,99.25
2016-06-14T09:24:48.296Z,99.49
2016-06-14T09:25:48.299Z,99.58
2016-06-14T09:26:48.349Z,99.68
2016-06-14T09:27:48.243Z,99.49
2016-06-14T09:28:48.230Z,99.99
2016-06-14T09:29:48.311Z,99.99
2016-06-14T09:30:48.236Z,99.99
2016-06-14T09:31:48.301Z,99.68
2016-06-14T09:32:48.242Z,99.16
2016-06-14T09:33:48.168Z,98.19
2016-06-14T09:34:48.264Z,97.33
2016-06-14T09:35:48.142Z,97.33
2016-06-14T09:36:48.130Z,96.94
2016-06-14T09:37:48.274Z,97.42
2016-06-14T09:38:48.105Z,96.94
2016-06-14T09:39:48.092Z,96.61
2016-06-14T09:40:48.078Z,96.51
2016-06-14T09:41:48.067Z,96.42
2016-06-14T09:42:48.054Z,96.17
2016-06-14T09:43:48.042Z,95.6
2016-06-14T09:44:48.030Z,94.82
2016-06-14T09:45:48.298Z,95.02
2016-06-14T09:46:48.098Z,94.73
2016-06-14T09:47:47.991Z,93.96
2016-06-14T09:48:48.025Z,93.96
2016-06-14T09:49:47.982Z,93.77
2016-06-14T09:50:47.953Z,93.87
2016-06-14T09:51:48.145Z,93.87
2016-06-14T09:52:48.022Z,93
2016-06-14T09:53:47.916Z,93.87
2016-06-14T09:54:47.951Z,92.95
2016-06-14T09:55:48.235Z,93.15
2016-06-14T09:56:48.191Z,93.24
2016-06-14T09:57:47.944Z,93.24
2016-06-14T09:58:47.900Z,93.53
2016-06-14T09:59:47.872Z,93.43
2016-06-14T10:00:47.922Z,93.72
2016-06-14T10:01:48.301Z,93.72
2016-06-14T10:02:47.835Z,93.68
2016-06-14T10:03:47.790Z,93.82
2016-06-14T10:04:47.778Z,94.01
2016-06-14T10:05:47.766Z,94.35
2016-06-14T10:06:47.800Z,94.45
2016-06-14T10:07:47.741Z,94.73
2016-06-14T10:08:47.947Z,94.83
2016-06-14T10:09:47.731Z,94.92
2016-06-14T10:10:47.687Z,95.21
2016-06-14T10:11:47.706Z,95.21
2016-06-14T10:12:47.756Z,95.12
2016-06-14T10:13:47.790Z,95.89
2016-06-14T10:14:47.637Z,95.6
2016-06-14T10:15:47.624Z,96.27
2016-06-14T10:16:47.611Z,96.51
2016-06-14T10:17:47.615Z,96.12
2016-06-14T10:18:47.587Z,95.74
2016-06-14T10:19:47.573Z,95.74
2016-06-14T10:20:47.562Z,95.36
2016-06-14T10:21:47.549Z,95.36
2016-06-14T10:22:47.755Z,95.45
2016-06-14T10:23:47.711Z,96.03
2016-06-14T10:24:47.496Z,96.03
2016-06-14T10:25:47.546Z,95.55
2016-06-14T10:26:47.580Z,95.74
2016-06-14T10:27:47.459Z,95.94
2016-06-14T10:28:47.476Z,96.03
2016-06-14T10:29:47.433Z,95.74
2016-06-14T10:30:47.420Z,95.94
2016-06-14T10:31:47.407Z,95.94
2016-06-14T10:32:47.443Z,95.79
2016-06-14T10:33:47.430Z,95.4
2016-06-14T10:34:47.369Z,95.07
2016-06-14T10:35:47.342Z,94.34
2016-06-14T10:36:47.392Z,94.78
2016-06-14T10:37:47.379Z,94.59
2016-06-14T10:38:47.382Z,94.78
2016-06-14T10:39:47.402Z,95.17
2016-06-14T10:40:47.279Z,94.92
2016-06-14T10:41:47.313Z,95.31
2016-06-14T10:42:47.254Z,95.02
2016-06-14T10:43:47.242Z,95.94
2016-06-14T10:44:47.230Z,97.04
2016-06-14T10:45:47.216Z,96.94
2016-06-14T10:46:47.861Z,98.92
2016-06-14T10:47:47.191Z,99.3
2016-06-14T10:48:47.194Z,99.45
2016-06-14T10:49:47.338Z,98
2016-06-14T10:50:47.310Z,97.72
2016-06-14T10:51:47.329Z,97.04
2016-06-14T10:52:47.129Z,95.84
2016-06-14T10:53:47.179Z,94.87
2016-06-14T10:54:47.197Z,94
2016-06-14T10:55:47.106Z,93.62
2016-06-14T10:56:47.110Z,93.13
2016-06-14T10:57:47.269Z,93.43
2016-06-14T10:58:47.068Z,93.33
2016-06-14T10:59:47.056Z,92.75
2016-06-14T11:00:47.060Z,91.98
2016-06-14T11:01:47.047Z,92.56
2016-06-14T11:02:47.035Z,92.75
2016-06-14T11:03:47.022Z,92.85
2016-06-14T11:04:47.009Z,93.33
2016-06-14T11:05:46.997Z,94.24
2016-06-14T11:06:46.984Z,94.15
2016-06-14T11:07:46.987Z,94.73
2016-06-14T11:08:46.974Z,95.64
2016-06-14T11:09:46.962Z,96.22
2016-06-14T11:10:46.949Z,95.4
2016-06-14T11:11:46.937Z,95.59
2016-06-14T11:12:46.940Z,95.93
2016-06-14T11:13:46.927Z,95.78
2016-06-14T11:14:46.915Z,95.1
2016-06-14T11:15:46.918Z,93.99
2016-06-14T11:16:46.905Z,93.46
2016-06-14T11:17:46.909Z,93.07
2016-06-14T11:18:46.896Z,92.93
2016-06-14T11:19:46.899Z,92.05
2016-06-14T11:20:46.887Z,91.32
2016-06-14T11:21:46.889Z,90.64
2016-06-14T11:22:46.878Z,90.4
2016-06-14T11:23:46.881Z,90.01
2016-06-14T11:24:46.867Z,89.37
2016-06-14T11:25:46.871Z,88.6
2016-06-14T11:26:46.874Z,88.55
2016-06-14T11:27:46.861Z,87.62
2016-06-14T11:28:46.865Z,86.94
2016-06-14T11:29:46.852Z,85.72
2016-06-14T11:30:46.855Z,85.43
2016-06-14T11:31:46.858Z,84.94
2016-06-14T11:32:46.861Z,84.01
2016-06-14T11:33:46.848Z,83.24
2016-06-14T11:34:46.851Z,83.53
2016-06-14T11:35:46.854Z,83.14
2016-06-14T11:36:46.843Z,83.47
2016-06-14T11:37:46.846Z,82.99
2016-06-14T11:38:46.849Z,82.79
2016-06-14T11:39:46.836Z,82.54
2016-06-14T11:40:46.838Z,81.76
2016-06-14T11:41:46.842Z,81.96
2016-06-14T11:42:46.845Z,81.38
2016-06-14T11:43:46.832Z,80.74
2016-06-14T11:44:46.835Z,79.66
2016-06-14T11:45:46.838Z,80.4
2016-06-14T11:46:46.826Z,80.76
2016-06-14T11:47:47.126Z,80.85
2016-06-14T11:48:47.691Z,80.07
2016-06-14T11:49:46.820Z,80.27
2016-06-14T11:50:46.823Z,80.71
2016-06-14T11:51:46.811Z,80.76
2016-06-14T11:52:46.814Z,81.04
2016-06-14T11:53:46.831Z,80.42
2016-06-14T11:54:46.804Z,80.29
2016-06-14T11:55:46.807Z,80.87
2016-06-14T11:56:46.809Z,81.93
2016-06-14T11:57:46.797Z,81.65
2016-06-14T11:58:46.800Z,80.68
2016-06-14T11:59:46.803Z,80.68
2016-06-14T12:00:46.791Z,80.96
2016-06-14T12:01:46.794Z,81.35
2016-06-14T12:02:46.782Z,81.45
2016-06-14T12:03:46.785Z,81.35
2016-06-14T12:04:46.788Z,81.16
2016-06-14T12:05:46.774Z,80.87
2016-06-14T12:06:46.777Z,80.96
2016-06-14T12:07:46.781Z,80.77
2016-06-14T12:08:46.769Z,81.35
2016-06-14T12:09:46.772Z,81.55
2016-06-14T12:10:46.759Z,81.35
2016-06-14T12:11:46.762Z,81.74
2016-06-14T12:12:46.750Z,82.03
2016-06-14T12:13:46.753Z,82.56
2016-06-14T12:14:46.757Z,82.17
2016-06-14T12:15:46.774Z,81.73
2016-06-14T12:16:46.747Z,81.43
2016-06-14T12:17:46.749Z,81.82
2016-06-14T12:18:46.753Z,81.14
2016-06-14T12:19:46.739Z,81.63
2016-06-14T12:20:46.743Z,81.43
2016-06-14T12:21:46.731Z,81.92
2016-06-14T12:22:46.734Z,81.34
2016-06-14T12:23:46.736Z,81.24
2016-06-14T12:24:46.724Z,80.85
2016-06-14T12:25:46.728Z,80.71
2016-06-14T12:26:46.714Z,80.94
2016-06-14T12:27:46.717Z,80.56
2016-06-14T12:28:46.720Z,80.32
2016-06-14T12:29:46.708Z,81.14
2016-06-14T12:30:46.711Z,80.91
2016-06-14T12:31:46.714Z,80.32
2016-06-14T12:32:46.702Z,80.81
2016-06-14T12:33:46.705Z,81.2
2016-06-14T12:34:46.708Z,80.91
2016-06-14T12:35:46.696Z,80.91
2016-06-14T12:36:46.699Z,81.1
2016-06-14T12:37:46.703Z,81.39
2016-06-14T12:38:46.689Z,81.39
2016-06-14T12:39:46.692Z,81.39
2016-06-14T12:40:46.696Z,81.43
2016-06-14T12:41:46.682Z,81.24
2016-06-14T12:42:46.685Z,81.63
2016-06-14T12:43:46.674Z,81.63
2016-06-14T12:44:46.677Z,80.46
2016-06-14T12:45:46.695Z,80.17
2016-06-14T12:46:46.667Z,80.81
2016-06-14T12:47:46.795Z,80.42
2016-06-14T12:48:46.658Z,80.96
2016-06-14T12:49:46.660Z,80.58
2016-06-14T12:50:46.649Z,80.38
2016-06-14T12:51:46.651Z,80.58
2016-06-14T12:52:46.701Z,81.55
2016-06-14T12:53:46.876Z,81.74
2016-06-14T12:54:46.630Z,82.62
2016-06-14T12:55:46.867Z,82.42
2016-06-14T12:56:46.636Z,82.75